sensor_id;sensor_type;location;lat;lon;timestamp;P1;durP1;ratioP1;P2;durP2;ratioP2
69046;SDS011;57261;47.504;19.084;2022-11-28T00:04:24;44.17;;;18.02;;
69046;SDS011;57261;47.504;19.084;2022-11-28T00:07:25;39.97;;;16.60;;
69046;SDS011;57261;47.504;19.084;2022-11-28T00:10:25;45.67;;;17.33;;
69046;SDS011;57261;47.504;19.084;2022-11-28T00:13:25;43.85;;;16.33;;
69046;SDS011;57261;47.504;19.084;2022-11-28T00:16:26;43.55;;;17.27;;
69046;SDS011;57261;47.504;19.084;2022-11-28T00:19:26;41.07;;;17.03;;
69046;SDS011;57261;47.504;19.084;2022-11-28T00:22:28;39.67;;;16.98;;
69046;SDS011;57261;47.504;19.084;2022-11-28T00:25:28;44.35;;;17.60;;
69046;SDS011;57261;47.504;19.084;2022-11-28T00:28:29;40.00;;;16.87;;
69046;SDS011;57261;47.504;19.084;2022-11-28T00:31:30;39.20;;;15.60;;
69046;SDS011;57261;47.504;19.084;2022-11-28T00:34:32;40.40;;;16.70;;
69046;SDS011;57261;47.504;19.084;2022-11-28T00:37:32;39.37;;;15.97;;
69046;SDS011;57261;47.504;19.084;2022-11-28T00:40:32;36.67;;;15.73;;
69046;SDS011;57261;47.504;19.084;2022-11-28T00:43:33;39.03;;;16.20;;
69046;SDS011;57261;47.504;19.084;2022-11-28T00:46:33;36.57;;;14.53;;
69046;SDS011;57261;47.504;19.084;2022-11-28T00:49:37;35.97;;;14.75;;
69046;SDS011;57261;47.504;19.084;2022-11-28T00:52:37;39.10;;;15.70;;
69046;SDS011;57261;47.504;19.084;2022-11-28T00:55:38;38.23;;;14.73;;
69046;SDS011;57261;47.504;19.084;2022-11-28T00:58:39;38.33;;;15.35;;
69046;SDS011;57261;47.504;19.084;2022-11-28T01:01:42;37.23;;;15.47;;
69046;SDS011;57261;47.504;19.084;2022-11-28T01:04:43;35.55;;;14.85;;
69046;SDS011;57261;47.504;19.084;2022-11-28T01:07:43;37.27;;;15.13;;
69046;SDS011;57261;47.504;19.084;2022-11-28T01:10:44;35.58;;;14.02;;
69046;SDS011;57261;47.504;19.084;2022-11-28T01:13:45;35.80;;;14.10;;
69046;SDS011;57261;47.504;19.084;2022-11-28T01:16:46;37.65;;;15.20;;
69046;SDS011;57261;47.504;19.084;2022-11-28T01:19:46;36.03;;;14.23;;
69046;SDS011;57261;47.504;19.084;2022-11-28T01:22:46;33.77;;;13.87;;
69046;SDS011;57261;47.504;19.084;2022-11-28T01:25:47;36.73;;;14.70;;
69046;SDS011;57261;47.504;19.084;2022-11-28T01:28:47;34.88;;;14.52;;
69046;SDS011;57261;47.504;19.084;2022-11-28T01:31:48;36.53;;;15.10;;
69046;SDS011;57261;47.504;19.084;2022-11-28T01:34:48;36.40;;;14.17;;
69046;SDS011;57261;47.504;19.084;2022-11-28T01:37:49;37.37;;;14.80;;
69046;SDS011;57261;47.504;19.084;2022-11-28T01:40:49;33.30;;;14.10;;
69046;SDS011;57261;47.504;19.084;2022-11-28T01:47:04;32.53;;;14.00;;
69046;SDS011;57261;47.504;19.084;2022-11-28T01:50:05;31.17;;;13.27;;
69046;SDS011;57261;47.504;19.084;2022-11-28T01:53:08;34.15;;;13.63;;
69046;SDS011;57261;47.504;19.084;2022-11-28T01:56:14;35.45;;;13.80;;
69046;SDS011;57261;47.504;19.084;2022-11-28T01:59:24;36.47;;;14.30;;
69046;SDS011;57261;47.504;19.084;2022-11-28T02:02:35;33.45;;;14.45;;
69046;SDS011;57261;47.504;19.084;2022-11-28T02:05:40;35.03;;;13.43;;
69046;SDS011;57261;47.504;19.084;2022-11-28T02:08:40;32.15;;;13.25;;
69046;SDS011;57261;47.504;19.084;2022-11-28T02:15:01;31.55;;;13.02;;
69046;SDS011;57261;47.504;19.084;2022-11-28T02:21:37;33.58;;;13.52;;
69046;SDS011;57261;47.504;19.084;2022-11-28T02:28:20;30.83;;;13.00;;
69046;SDS011;57261;47.504;19.084;2022-11-28T02:35:19;31.67;;;13.35;;
69046;SDS011;57261;47.504;19.084;2022-11-28T02:38:27;30.65;;;12.77;;
69046;SDS011;57261;47.504;19.084;2022-11-28T02:41:33;28.70;;;12.20;;
69046;SDS011;57261;47.504;19.084;2022-11-28T02:48:25;32.17;;;12.55;;
69046;SDS011;57261;47.504;19.084;2022-11-28T02:54:40;30.10;;;12.80;;
69046;SDS011;57261;47.504;19.084;2022-11-28T02:57:45;28.75;;;12.10;;
69046;SDS011;57261;47.504;19.084;2022-11-28T03:00:47;30.75;;;12.60;;
69046;SDS011;57261;47.504;19.084;2022-11-28T03:13:55;25.60;;;11.23;;
69046;SDS011;57261;47.504;19.084;2022-11-28T03:23:47;29.77;;;12.40;;
69046;SDS011;57261;47.504;19.084;2022-11-28T03:30:05;27.37;;;12.00;;
69046;SDS011;57261;47.504;19.084;2022-11-28T03:33:12;28.38;;;11.80;;
69046;SDS011;57261;47.504;19.084;2022-11-28T03:36:17;28.23;;;11.43;;
69046;SDS011;57261;47.504;19.084;2022-11-28T03:39:22;26.23;;;11.53;;
69046;SDS011;57261;47.504;19.084;2022-11-28T03:42:28;28.92;;;11.80;;
69046;SDS011;57261;47.504;19.084;2022-11-28T03:45:52;26.08;;;11.13;;
69046;SDS011;57261;47.504;19.084;2022-11-28T03:48:57;27.63;;;12.30;;
69046;SDS011;57261;47.504;19.084;2022-11-28T03:52:04;26.58;;;11.95;;
69046;SDS011;57261;47.504;19.084;2022-11-28T03:58:31;27.23;;;12.43;;
69046;SDS011;57261;47.504;19.084;2022-11-28T04:01:41;26.95;;;11.70;;
69046;SDS011;57261;47.504;19.084;2022-11-28T04:05:04;27.00;;;11.98;;
69046;SDS011;57261;47.504;19.084;2022-11-28T04:08:16;27.63;;;12.73;;
69046;SDS011;57261;47.504;19.084;2022-11-28T04:11:21;25.10;;;11.53;;
69046;SDS011;57261;47.504;19.084;2022-11-28T04:14:34;25.25;;;11.70;;
69046;SDS011;57261;47.504;19.084;2022-11-28T04:17:45;26.63;;;11.70;;
69046;SDS011;57261;47.504;19.084;2022-11-28T04:24:27;27.52;;;11.93;;
69046;SDS011;57261;47.504;19.084;2022-11-28T04:27:37;29.58;;;11.95;;
69046;SDS011;57261;47.504;19.084;2022-11-28T04:30:40;29.63;;;12.30;;
69046;SDS011;57261;47.504;19.084;2022-11-28T04:33:47;26.63;;;11.50;;
69046;SDS011;57261;47.504;19.084;2022-11-28T04:36:52;29.73;;;11.95;;
69046;SDS011;57261;47.504;19.084;2022-11-28T04:39:56;26.98;;;11.80;;
69046;SDS011;57261;47.504;19.084;2022-11-28T04:43:03;28.70;;;13.27;;
69046;SDS011;57261;47.504;19.084;2022-11-28T04:46:12;29.45;;;12.48;;
69046;SDS011;57261;47.504;19.084;2022-11-28T04:49:16;29.27;;;12.13;;
69046;SDS011;57261;47.504;19.084;2022-11-28T04:52:22;29.87;;;12.47;;
69046;SDS011;57261;47.504;19.084;2022-11-28T04:58:51;28.10;;;11.73;;
69046;SDS011;57261;47.504;19.084;2022-11-28T05:01:51;29.05;;;12.02;;
69046;SDS011;57261;47.504;19.084;2022-11-28T05:04:56;31.37;;;12.50;;
69046;SDS011;57261;47.504;19.084;2022-11-28T05:07:57;29.05;;;12.55;;
69046;SDS011;57261;47.504;19.084;2022-11-28T05:10:58;30.23;;;12.85;;
69046;SDS011;57261;47.504;19.084;2022-11-28T05:13:58;30.10;;;12.53;;
69046;SDS011;57261;47.504;19.084;2022-11-28T05:16:59;32.40;;;12.93;;
69046;SDS011;57261;47.504;19.084;2022-11-28T05:20:03;29.53;;;11.97;;
69046;SDS011;57261;47.504;19.084;2022-11-28T05:23:05;30.13;;;12.55;;
69046;SDS011;57261;47.504;19.084;2022-11-28T05:26:06;28.73;;;12.40;;
69046;SDS011;57261;47.504;19.084;2022-11-28T05:29:07;28.95;;;11.88;;
69046;SDS011;57261;47.504;19.084;2022-11-28T05:32:14;29.57;;;12.47;;
69046;SDS011;57261;47.504;19.084;2022-11-28T05:35:14;29.15;;;12.20;;
69046;SDS011;57261;47.504;19.084;2022-11-28T05:38:15;31.47;;;12.33;;
69046;SDS011;57261;47.504;19.084;2022-11-28T05:41:22;28.37;;;12.63;;
69046;SDS011;57261;47.504;19.084;2022-11-28T05:44:27;27.45;;;12.18;;
69046;SDS011;57261;47.504;19.084;2022-11-28T05:47:31;36.53;;;16.17;;
69046;SDS011;57261;47.504;19.084;2022-11-28T05:50:32;31.75;;;13.35;;
69046;SDS011;57261;47.504;19.084;2022-11-28T05:53:34;30.80;;;13.53;;
69046;SDS011;57261;47.504;19.084;2022-11-28T05:56:35;31.33;;;13.23;;
69046;SDS011;57261;47.504;19.084;2022-11-28T05:59:35;33.73;;;13.87;;
69046;SDS011;57261;47.504;19.084;2022-11-28T06:02:36;33.73;;;13.83;;
69046;SDS011;57261;47.504;19.084;2022-11-28T06:05:40;35.33;;;14.63;;
69046;SDS011;57261;47.504;19.084;2022-11-28T06:08:41;32.28;;;14.57;;
69046;SDS011;57261;47.504;19.084;2022-11-28T06:11:43;37.25;;;15.07;;
69046;SDS011;57261;47.504;19.084;2022-11-28T06:14:43;35.72;;;14.70;;
69046;SDS011;57261;47.504;19.084;2022-11-28T06:17:43;40.33;;;16.70;;
69046;SDS011;57261;47.504;19.084;2022-11-28T06:20:44;40.50;;;16.67;;
69046;SDS011;57261;47.504;19.084;2022-11-28T06:23:44;32.97;;;14.53;;
69046;SDS011;57261;47.504;19.084;2022-11-28T06:26:45;37.83;;;16.30;;
69046;SDS011;57261;47.504;19.084;2022-11-28T06:29:45;36.92;;;14.90;;
69046;SDS011;57261;47.504;19.084;2022-11-28T06:32:46;37.93;;;16.00;;
69046;SDS011;57261;47.504;19.084;2022-11-28T06:35:47;40.43;;;17.10;;
69046;SDS011;57261;47.504;19.084;2022-11-28T06:38:47;38.95;;;16.15;;
69046;SDS011;57261;47.504;19.084;2022-11-28T06:41:48;39.63;;;18.03;;
69046;SDS011;57261;47.504;19.084;2022-11-28T06:44:51;38.53;;;16.75;;
69046;SDS011;57261;47.504;19.084;2022-11-28T06:47:52;44.63;;;18.27;;
69046;SDS011;57261;47.504;19.084;2022-11-28T06:50:53;42.80;;;17.87;;
69046;SDS011;57261;47.504;19.084;2022-11-28T06:53:53;40.28;;;16.92;;
69046;SDS011;57261;47.504;19.084;2022-11-28T06:56:54;41.13;;;17.87;;
69046;SDS011;57261;47.504;19.084;2022-11-28T06:59:56;43.33;;;17.92;;
69046;SDS011;57261;47.504;19.084;2022-11-28T07:02:56;45.40;;;19.13;;
69046;SDS011;57261;47.504;19.084;2022-11-28T07:05:59;44.63;;;18.67;;
69046;SDS011;57261;47.504;19.084;2022-11-28T07:09:01;41.63;;;17.75;;
69046;SDS011;57261;47.504;19.084;2022-11-28T07:12:01;39.53;;;17.63;;
69046;SDS011;57261;47.504;19.084;2022-11-28T07:15:02;42.83;;;17.83;;
69046;SDS011;57261;47.504;19.084;2022-11-28T07:18:05;41.45;;;18.45;;
69046;SDS011;57261;47.504;19.084;2022-11-28T07:21:06;43.73;;;18.27;;
69046;SDS011;57261;47.504;19.084;2022-11-28T07:24:06;43.50;;;18.13;;
69046;SDS011;57261;47.504;19.084;2022-11-28T07:27:07;41.97;;;17.92;;
69046;SDS011;57261;47.504;19.084;2022-11-28T07:30:08;46.23;;;18.43;;
69046;SDS011;57261;47.504;19.084;2022-11-28T07:33:08;41.75;;;18.13;;
69046;SDS011;57261;47.504;19.084;2022-11-28T07:36:10;45.67;;;18.13;;
69046;SDS011;57261;47.504;19.084;2022-11-28T07:39:15;39.77;;;17.93;;
69046;SDS011;57261;47.504;19.084;2022-11-28T07:42:16;40.53;;;17.85;;
69046;SDS011;57261;47.504;19.084;2022-11-28T07:45:17;42.50;;;19.25;;
69046;SDS011;57261;47.504;19.084;2022-11-28T07:48:17;43.37;;;18.77;;
69046;SDS011;57261;47.504;19.084;2022-11-28T07:51:19;41.50;;;18.03;;
69046;SDS011;57261;47.504;19.084;2022-11-28T07:54:25;43.85;;;18.02;;
69046;SDS011;57261;47.504;19.084;2022-11-28T07:57:25;44.15;;;18.77;;
69046;SDS011;57261;47.504;19.084;2022-11-28T08:00:26;43.57;;;18.57;;
69046;SDS011;57261;47.504;19.084;2022-11-28T08:03:26;42.50;;;18.57;;
69046;SDS011;57261;47.504;19.084;2022-11-28T08:06:28;43.03;;;18.10;;
69046;SDS011;57261;47.504;19.084;2022-11-28T08:09:30;41.78;;;18.67;;
69046;SDS011;57261;47.504;19.084;2022-11-28T08:12:30;44.13;;;18.80;;
69046;SDS011;57261;47.504;19.084;2022-11-28T08:15:31;44.53;;;19.50;;
69046;SDS011;57261;47.504;19.084;2022-11-28T08:18:32;43.37;;;17.73;;
69046;SDS011;57261;47.504;19.084;2022-11-28T08:21:33;39.58;;;18.52;;
69046;SDS011;57261;47.504;19.084;2022-11-28T08:24:34;43.15;;;19.17;;
69046;SDS011;57261;47.504;19.084;2022-11-28T08:27:34;40.08;;;16.80;;
69046;SDS011;57261;47.504;19.084;2022-11-28T08:30:35;38.50;;;17.37;;
69046;SDS011;57261;47.504;19.084;2022-11-28T08:33:36;36.67;;;17.10;;
69046;SDS011;57261;47.504;19.084;2022-11-28T08:36:36;36.95;;;17.65;;
69046;SDS011;57261;47.504;19.084;2022-11-28T08:39:37;36.17;;;16.00;;
69046;SDS011;57261;47.504;19.084;2022-11-28T08:42:44;35.87;;;17.13;;
69046;SDS011;57261;47.504;19.084;2022-11-28T08:45:44;36.92;;;16.30;;
69046;SDS011;57261;47.504;19.084;2022-11-28T08:48:45;35.30;;;15.90;;
69046;SDS011;57261;47.504;19.084;2022-11-28T08:51:47;35.80;;;15.85;;
69046;SDS011;57261;47.504;19.084;2022-11-28T08:54:49;35.78;;;15.82;;
69046;SDS011;57261;47.504;19.084;2022-11-28T08:57:49;36.55;;;16.17;;
69046;SDS011;57261;47.504;19.084;2022-11-28T09:00:50;34.57;;;15.03;;
69046;SDS011;57261;47.504;19.084;2022-11-28T09:03:51;33.73;;;15.43;;
69046;SDS011;57261;47.504;19.084;2022-11-28T09:06:52;36.28;;;15.63;;
69046;SDS011;57261;47.504;19.084;2022-11-28T09:09:52;35.03;;;15.33;;
69046;SDS011;57261;47.504;19.084;2022-11-28T09:12:53;32.13;;;14.97;;
69046;SDS011;57261;47.504;19.084;2022-11-28T09:15:53;31.50;;;14.77;;
69046;SDS011;57261;47.504;19.084;2022-11-28T09:18:54;30.73;;;14.75;;
69046;SDS011;57261;47.504;19.084;2022-11-28T09:22:16;26.00;;;13.07;;
69046;SDS011;57261;47.504;19.084;2022-11-28T09:25:17;33.07;;;16.07;;
69046;SDS011;57261;47.504;19.084;2022-11-28T09:28:17;35.22;;;15.75;;
69046;SDS011;57261;47.504;19.084;2022-11-28T09:31:18;33.10;;;15.00;;
69046;SDS011;57261;47.504;19.084;2022-11-28T09:34:18;34.03;;;15.17;;
69046;SDS011;57261;47.504;19.084;2022-11-28T09:37:20;31.70;;;15.13;;
69046;SDS011;57261;47.504;19.084;2022-11-28T09:40:26;31.50;;;15.00;;
69046;SDS011;57261;47.504;19.084;2022-11-28T09:43:36;30.63;;;13.98;;
69046;SDS011;57261;47.504;19.084;2022-11-28T09:46:41;31.67;;;14.80;;
69046;SDS011;57261;47.504;19.084;2022-11-28T09:53:01;33.45;;;15.43;;
69046;SDS011;57261;47.504;19.084;2022-11-28T09:56:13;32.53;;;15.45;;
69046;SDS011;57261;47.504;19.084;2022-11-28T09:59:22;30.73;;;15.38;;
69046;SDS011;57261;47.504;19.084;2022-11-28T10:06:17;32.35;;;15.13;;
69046;SDS011;57261;47.504;19.084;2022-11-28T10:09:30;33.00;;;14.85;;
69046;SDS011;57261;47.504;19.084;2022-11-28T10:12:40;32.37;;;14.77;;
69046;SDS011;57261;47.504;19.084;2022-11-28T10:16:40;33.03;;;15.25;;
69046;SDS011;57261;47.504;19.084;2022-11-28T10:19:37;33.55;;;16.88;;
69046;SDS011;57261;47.504;19.084;2022-11-28T10:22:54;31.63;;;15.27;;
69046;SDS011;57261;47.504;19.084;2022-11-28T10:25:59;31.63;;;15.25;;
69046;SDS011;57261;47.504;19.084;2022-11-28T10:32:35;33.33;;;15.20;;
69046;SDS011;57261;47.504;19.084;2022-11-28T10:38:58;35.05;;;15.27;;
69046;SDS011;57261;47.504;19.084;2022-11-28T10:45:18;34.60;;;16.37;;
69046;SDS011;57261;47.504;19.084;2022-11-28T10:58:06;34.50;;;15.50;;
69046;SDS011;57261;47.504;19.084;2022-11-28T11:01:14;30.88;;;15.40;;
69046;SDS011;57261;47.504;19.084;2022-11-28T11:04:16;31.10;;;15.10;;
69046;SDS011;57261;47.504;19.084;2022-11-28T11:07:24;32.60;;;15.82;;
69046;SDS011;57261;47.504;19.084;2022-11-28T11:10:41;34.78;;;16.50;;
69046;SDS011;57261;47.504;19.084;2022-11-28T11:13:57;36.30;;;16.75;;
69046;SDS011;57261;47.504;19.084;2022-11-28T11:17:03;32.92;;;16.02;;
69046;SDS011;57261;47.504;19.084;2022-11-28T11:23:33;33.17;;;16.02;;
69046;SDS011;57261;47.504;19.084;2022-11-28T11:26:34;35.70;;;16.37;;
69046;SDS011;57261;47.504;19.084;2022-11-28T11:29:38;34.20;;;16.33;;
69046;SDS011;57261;47.504;19.084;2022-11-28T11:32:39;33.20;;;16.53;;
69046;SDS011;57261;47.504;19.084;2022-11-28T11:35:46;37.17;;;16.65;;
69046;SDS011;57261;47.504;19.084;2022-11-28T11:38:48;35.30;;;17.17;;
69046;SDS011;57261;47.504;19.084;2022-11-28T11:42:10;35.75;;;16.83;;
69046;SDS011;57261;47.504;19.084;2022-11-28T11:45:23;35.42;;;17.00;;
69046;SDS011;57261;47.504;19.084;2022-11-28T11:48:33;35.08;;;16.25;;
69046;SDS011;57261;47.504;19.084;2022-11-28T11:51:38;36.75;;;16.90;;
69046;SDS011;57261;47.504;19.084;2022-11-28T11:58:15;37.17;;;18.07;;
69046;SDS011;57261;47.504;19.084;2022-11-28T12:01:19;37.63;;;18.30;;
69046;SDS011;57261;47.504;19.084;2022-11-28T12:04:26;36.25;;;16.55;;
69046;SDS011;57261;47.504;19.084;2022-11-28T12:07:35;35.88;;;17.75;;
69046;SDS011;57261;47.504;19.084;2022-11-28T12:10:50;36.38;;;18.73;;
69046;SDS011;57261;47.504;19.084;2022-11-28T12:17:36;35.85;;;17.10;;
69046;SDS011;57261;47.504;19.084;2022-11-28T12:20:52;39.37;;;17.73;;
69046;SDS011;57261;47.504;19.084;2022-11-28T12:23:57;37.25;;;17.70;;
69046;SDS011;57261;47.504;19.084;2022-11-28T12:30:42;35.80;;;17.53;;
69046;SDS011;57261;47.504;19.084;2022-11-28T12:40:51;37.72;;;16.85;;
69046;SDS011;57261;47.504;19.084;2022-11-28T12:44:10;36.45;;;17.20;;
69046;SDS011;57261;47.504;19.084;2022-11-28T12:50:32;34.20;;;16.98;;
69046;SDS011;57261;47.504;19.084;2022-11-28T12:53:40;35.60;;;17.40;;
69046;SDS011;57261;47.504;19.084;2022-11-28T12:57:14;36.28;;;17.73;;
69046;SDS011;57261;47.504;19.084;2022-11-28T13:00:25;37.42;;;17.63;;
69046;SDS011;57261;47.504;19.084;2022-11-28T13:06:55;39.35;;;17.73;;
69046;SDS011;57261;47.504;19.084;2022-11-28T13:10:13;36.70;;;17.25;;
69046;SDS011;57261;47.504;19.084;2022-11-28T13:13:31;37.67;;;17.90;;
69046;SDS011;57261;47.504;19.084;2022-11-28T13:19:58;36.67;;;17.80;;
69046;SDS011;57261;47.504;19.084;2022-11-28T13:33:31;35.33;;;17.55;;
69046;SDS011;57261;47.504;19.084;2022-11-28T13:36:54;37.07;;;17.80;;
69046;SDS011;57261;47.504;19.084;2022-11-28T13:39:58;37.80;;;17.77;;
69046;SDS011;57261;47.504;19.084;2022-11-28T13:46:16;33.90;;;17.40;;
69046;SDS011;57261;47.504;19.084;2022-11-28T13:49:21;33.70;;;16.42;;
69046;SDS011;57261;47.504;19.084;2022-11-28T13:55:45;34.50;;;16.65;;
69046;SDS011;57261;47.504;19.084;2022-11-28T13:58:56;35.60;;;17.47;;
69046;SDS011;57261;47.504;19.084;2022-11-28T14:02:00;36.13;;;17.17;;
69046;SDS011;57261;47.504;19.084;2022-11-28T14:05:04;35.35;;;17.23;;
69046;SDS011;57261;47.504;19.084;2022-11-28T14:11:57;36.75;;;16.73;;
69046;SDS011;57261;47.504;19.084;2022-11-28T14:15:25;34.53;;;16.30;;
69046;SDS011;57261;47.504;19.084;2022-11-28T14:25:38;37.17;;;17.33;;
69046;SDS011;57261;47.504;19.084;2022-11-28T14:28:42;37.38;;;17.42;;
69046;SDS011;57261;47.504;19.084;2022-11-28T14:31:44;37.50;;;16.97;;
69046;SDS011;57261;47.504;19.084;2022-11-28T14:34:47;38.47;;;17.40;;
69046;SDS011;57261;47.504;19.084;2022-11-28T14:37:51;34.63;;;15.95;;
69046;SDS011;57261;47.504;19.084;2022-11-28T14:47:36;35.13;;;17.05;;
69046;SDS011;57261;47.504;19.084;2022-11-28T14:50:46;41.50;;;17.15;;
69046;SDS011;57261;47.504;19.084;2022-11-28T14:53:51;33.97;;;16.35;;
69046;SDS011;57261;47.504;19.084;2022-11-28T14:56:51;38.83;;;17.73;;
69046;SDS011;57261;47.504;19.084;2022-11-28T14:59:54;35.47;;;16.30;;
69046;SDS011;57261;47.504;19.084;2022-11-28T15:09:25;39.13;;;17.80;;
69046;SDS011;57261;47.504;19.084;2022-11-28T15:15:57;39.35;;;17.27;;
69046;SDS011;57261;47.504;19.084;2022-11-28T15:19:02;38.65;;;17.88;;
69046;SDS011;57261;47.504;19.084;2022-11-28T15:22:10;40.10;;;17.80;;
69046;SDS011;57261;47.504;19.084;2022-11-28T15:25:40;37.83;;;17.70;;
69046;SDS011;57261;47.504;19.084;2022-11-28T15:29:06;41.67;;;18.05;;
69046;SDS011;57261;47.504;19.084;2022-11-28T15:32:12;42.00;;;18.47;;
69046;SDS011;57261;47.504;19.084;2022-11-28T15:35:15;41.05;;;17.80;;
69046;SDS011;57261;47.504;19.084;2022-11-28T15:38:17;39.65;;;18.80;;
69046;SDS011;57261;47.504;19.084;2022-11-28T15:41:25;36.47;;;17.30;;
69046;SDS011;57261;47.504;19.084;2022-11-28T15:44:27;37.38;;;17.38;;
69046;SDS011;57261;47.504;19.084;2022-11-28T15:47:28;39.63;;;18.30;;
69046;SDS011;57261;47.504;19.084;2022-11-28T15:50:30;40.58;;;17.80;;
69046;SDS011;57261;47.504;19.084;2022-11-28T15:53:33;37.25;;;17.65;;
69046;SDS011;57261;47.504;19.084;2022-11-28T15:56:54;39.92;;;17.67;;
69046;SDS011;57261;47.504;19.084;2022-11-28T15:59:55;38.28;;;18.30;;
69046;SDS011;57261;47.504;19.084;2022-11-28T16:02:56;40.53;;;18.43;;
69046;SDS011;57261;47.504;19.084;2022-11-28T16:05:56;39.50;;;18.15;;
69046;SDS011;57261;47.504;19.084;2022-11-28T16:08:59;41.17;;;18.47;;
69046;SDS011;57261;47.504;19.084;2022-11-28T16:12:05;40.47;;;19.05;;
69046;SDS011;57261;47.504;19.084;2022-11-28T16:15:16;43.03;;;19.02;;
69046;SDS011;57261;47.504;19.084;2022-11-28T16:18:18;39.80;;;18.40;;
69046;SDS011;57261;47.504;19.084;2022-11-28T16:21:19;45.33;;;18.98;;
69046;SDS011;57261;47.504;19.084;2022-11-28T16:24:25;42.60;;;19.60;;
69046;SDS011;57261;47.504;19.084;2022-11-28T16:27:34;42.58;;;19.15;;
69046;SDS011;57261;47.504;19.084;2022-11-28T16:30:40;42.80;;;19.90;;
69046;SDS011;57261;47.504;19.084;2022-11-28T16:33:42;40.58;;;19.00;;
69046;SDS011;57261;47.504;19.084;2022-11-28T16:36:47;41.47;;;18.95;;
69046;SDS011;57261;47.504;19.084;2022-11-28T16:39:59;41.47;;;19.00;;
69046;SDS011;57261;47.504;19.084;2022-11-28T16:43:14;41.08;;;20.05;;
69046;SDS011;57261;47.504;19.084;2022-11-28T16:46:19;41.75;;;19.63;;
69046;SDS011;57261;47.504;19.084;2022-11-28T16:49:35;45.30;;;20.80;;
69046;SDS011;57261;47.504;19.084;2022-11-28T16:52:40;41.00;;;19.40;;
69046;SDS011;57261;47.504;19.084;2022-11-28T16:55:44;41.95;;;20.20;;
69046;SDS011;57261;47.504;19.084;2022-11-28T16:58:45;43.97;;;20.07;;
69046;SDS011;57261;47.504;19.084;2022-11-28T17:01:46;44.13;;;20.60;;
69046;SDS011;57261;47.504;19.084;2022-11-28T17:04:51;45.05;;;20.10;;
69046;SDS011;57261;47.504;19.084;2022-11-28T17:07:52;41.70;;;20.25;;
69046;SDS011;57261;47.504;19.084;2022-11-28T17:10:52;45.30;;;20.30;;
69046;SDS011;57261;47.504;19.084;2022-11-28T17:13:53;45.60;;;21.50;;
69046;SDS011;57261;47.504;19.084;2022-11-28T17:16:53;46.20;;;21.30;;
69046;SDS011;57261;47.504;19.084;2022-11-28T17:19:54;43.47;;;21.88;;
69046;SDS011;57261;47.504;19.084;2022-11-28T17:22:54;45.80;;;22.38;;
69046;SDS011;57261;47.504;19.084;2022-11-28T17:25:57;43.37;;;21.13;;
69046;SDS011;57261;47.504;19.084;2022-11-28T17:28:58;44.03;;;21.67;;
69046;SDS011;57261;47.504;19.084;2022-11-28T17:31:58;46.33;;;21.63;;
69046;SDS011;57261;47.504;19.084;2022-11-28T17:35:01;45.03;;;21.93;;
69046;SDS011;57261;47.504;19.084;2022-11-28T17:38:03;44.97;;;22.00;;
69046;SDS011;57261;47.504;19.084;2022-11-28T17:41:03;44.93;;;21.70;;
69046;SDS011;57261;47.504;19.084;2022-11-28T17:44:20;50.33;;;22.88;;
69046;SDS011;57261;47.504;19.084;2022-11-28T17:47:24;46.78;;;22.63;;
69046;SDS011;57261;47.504;19.084;2022-11-28T17:50:25;43.83;;;21.80;;
69046;SDS011;57261;47.504;19.084;2022-11-28T17:53:25;46.70;;;22.77;;
69046;SDS011;57261;47.504;19.084;2022-11-28T17:56:27;45.03;;;22.25;;
69046;SDS011;57261;47.504;19.084;2022-11-28T17:59:27;46.73;;;22.97;;
69046;SDS011;57261;47.504;19.084;2022-11-28T18:02:28;47.77;;;23.13;;
69046;SDS011;57261;47.504;19.084;2022-11-28T18:05:28;42.93;;;21.00;;
69046;SDS011;57261;47.504;19.084;2022-11-28T18:08:29;44.40;;;20.83;;
69046;SDS011;57261;47.504;19.084;2022-11-28T18:11:29;43.97;;;21.17;;
69046;SDS011;57261;47.504;19.084;2022-11-28T18:14:32;47.70;;;22.17;;
69046;SDS011;57261;47.504;19.084;2022-11-28T18:17:32;47.22;;;22.73;;
69046;SDS011;57261;47.504;19.084;2022-11-28T18:20:32;44.80;;;21.10;;
69046;SDS011;57261;47.504;19.084;2022-11-28T18:23:40;49.70;;;22.53;;
69046;SDS011;57261;47.504;19.084;2022-11-28T18:26:42;47.10;;;22.13;;
69046;SDS011;57261;47.504;19.084;2022-11-28T18:29:43;44.07;;;21.70;;
69046;SDS011;57261;47.504;19.084;2022-11-28T18:32:44;46.60;;;22.73;;
69046;SDS011;57261;47.504;19.084;2022-11-28T18:35:44;44.93;;;22.03;;
69046;SDS011;57261;47.504;19.084;2022-11-28T18:38:45;47.45;;;22.02;;
69046;SDS011;57261;47.504;19.084;2022-11-28T18:41:46;47.30;;;21.92;;
69046;SDS011;57261;47.504;19.084;2022-11-28T18:44:47;45.67;;;21.58;;
69046;SDS011;57261;47.504;19.084;2022-11-28T18:47:47;49.33;;;22.67;;
69046;SDS011;57261;47.504;19.084;2022-11-28T18:50:48;47.30;;;23.13;;
69046;SDS011;57261;47.504;19.084;2022-11-28T18:53:49;49.03;;;23.27;;
69046;SDS011;57261;47.504;19.084;2022-11-28T18:56:50;45.67;;;21.60;;
69046;SDS011;57261;47.504;19.084;2022-11-28T18:59:50;45.60;;;21.60;;
69046;SDS011;57261;47.504;19.084;2022-11-28T19:02:51;48.47;;;21.77;;
69046;SDS011;57261;47.504;19.084;2022-11-28T19:05:53;50.22;;;23.38;;
69046;SDS011;57261;47.504;19.084;2022-11-28T19:08:56;47.60;;;22.57;;
69046;SDS011;57261;47.504;19.084;2022-11-28T19:11:58;48.88;;;23.33;;
69046;SDS011;57261;47.504;19.084;2022-11-28T19:14:58;49.03;;;23.30;;
69046;SDS011;57261;47.504;19.084;2022-11-28T19:17:59;46.63;;;22.50;;
69046;SDS011;57261;47.504;19.084;2022-11-28T19:20:59;46.70;;;22.35;;
69046;SDS011;57261;47.504;19.084;2022-11-28T19:24:00;48.60;;;23.87;;
69046;SDS011;57261;47.504;19.084;2022-11-28T19:27:01;47.72;;;21.90;;
69046;SDS011;57261;47.504;19.084;2022-11-28T19:30:02;47.43;;;22.57;;
69046;SDS011;57261;47.504;19.084;2022-11-28T19:33:07;47.80;;;22.92;;
69046;SDS011;57261;47.504;19.084;2022-11-28T19:36:09;46.57;;;21.87;;
69046;SDS011;57261;47.504;19.084;2022-11-28T19:39:15;49.23;;;22.63;;
69046;SDS011;57261;47.504;19.084;2022-11-28T19:42:17;43.75;;;21.33;;
69046;SDS011;57261;47.504;19.084;2022-11-28T19:45:18;45.60;;;22.23;;
69046;SDS011;57261;47.504;19.084;2022-11-28T19:48:19;44.05;;;21.92;;
69046;SDS011;57261;47.504;19.084;2022-11-28T19:51:19;47.27;;;22.47;;
69046;SDS011;57261;47.504;19.084;2022-11-28T19:54:20;47.20;;;22.07;;
69046;SDS011;57261;47.504;19.084;2022-11-28T19:57:20;49.47;;;22.87;;
69046;SDS011;57261;47.504;19.084;2022-11-28T20:00:24;43.75;;;22.17;;
69046;SDS011;57261;47.504;19.084;2022-11-28T20:03:24;45.85;;;22.83;;
69046;SDS011;57261;47.504;19.084;2022-11-28T20:06:26;45.40;;;22.30;;
69046;SDS011;57261;47.504;19.084;2022-11-28T20:09:28;47.55;;;22.30;;
69046;SDS011;57261;47.504;19.084;2022-11-28T20:12:29;42.60;;;21.07;;
69046;SDS011;57261;47.504;19.084;2022-11-28T20:15:29;46.87;;;23.07;;
69046;SDS011;57261;47.504;19.084;2022-11-28T20:18:30;47.00;;;21.40;;
69046;SDS011;57261;47.504;19.084;2022-11-28T20:21:31;43.88;;;21.92;;